Nearby METAR Reports

 

KRNT - Renton, Washington, USA
Distance from station: WNW 10mi, 17km
Updated: Mon, 24-Sep-2018 5:53am PDT
Clear
Clear
 Wind from calm
Wind: Calm
Temperature: 48°F , 9°C
Dew Point: 45°F , 7°C
Humidity: 87%
Barometer: 30.24 inHg , 1024 hPa
Clouds: Clear
Visibility: 10 miles , 16 km
2018/09/24 12:53 KRNT 241253Z AUTO 00000KT 10SM CLR 09/07 A3024 RMK AO2 SLP243 T00940072
KSEA - Seattle/Metro, Washington, USA
Distance from station: W 14mi, 23km
Updated: Mon, 24-Sep-2018 5:53am PDT
Few Clouds
Few Clouds
 Wind from ESE
Wind: ESE 5 mph , 7 km/h
Temperature: 50°F , 10°C
Wind Chill: 48°F , 9°C
Dew Point: 43°F , 6°C
Humidity: 76%
Barometer: 30.23 inHg , 1023.7 hPa
Clouds: Few Clouds
Visibility: 10 miles , 16 km
Cloud details: Few Clouds 5500 ft
2018/09/24 12:53 KSEA 241253Z 12004KT 10SM FEW055 10/06 A3023 RMK AO2 SLP244 T01000061 $
 
KBFI - Seattle/Boeing, Washington, USA
Distance from station: WNW 16mi, 26km
Updated: Mon, 24-Sep-2018 5:53am PDT
Clear
Clear
 Wind from SE
Wind: SE 6 mph , 9 km/h
Temperature: 48°F , 9°C
Wind Chill: 45°F , 7°C
Dew Point: 43°F , 6°C
Humidity: 82%
Barometer: 30.24 inHg , 1024 hPa
Clouds: Clear
Visibility: 10 miles , 16 km
2018/09/24 12:53 KBFI 241253Z 14005KT 10SM CLR 09/06 A3024 RMK AO2 SLP239 T00890061
KPLU - Puyallup/Thun, Washington, USA
Distance from station: SSW 27mi, 43km
Updated: Mon, 24-Sep-2018 5:55am PDT
Overcast
Overcast
 Wind from calm
Wind: Calm
Temperature: 46°F , 8°C
Dew Point: 46°F , 8°C
Humidity: 100%
Barometer: 30.23 inHg , 1023.7 hPa
Clouds: Overcast
Visibility: 10 miles , 16 km
Cloud details: Overcast 5000 ft
2018/09/24 12:55 KPLU 241255Z AUTO 00000KT 10SM OVC050 08/08 A3023 RMK AO2
 
KTIW - Tacoma, Washington, USA
Distance from station: WSW 29mi, 47km
Updated: Mon, 24-Sep-2018 6:01am PDT
Mist, Few clouds
Mist, Few clouds
 Wind from calm
Wind: Calm
Temperature: 46°F , 8°C
Dew Point: 45°F , 7°C
Humidity: 93%
Barometer: 30.23 inHg , 1023.7 hPa
Summary: Mist
Clouds: Few Clouds
Visibility: 5 miles , 8 km
Cloud details: Few Clouds 200 ft
2018/09/24 13:01 KTIW 241301Z AUTO 00000KT 5SM BR FEW002 08/07 A3023 RMK AO2 T00780072
KTCM - Tacoma/Mc Chord, Washington, USA
Distance from station: SW 31mi, 50km
Updated: Mon, 24-Sep-2018 4:58am PDT
NOT Current
Overcast
Overcast
 Wind from calm
Wind: Calm
Temperature: 43°F , 6°C
Dew Point: 43°F , 6°C
Humidity: 100%
Barometer: 30.23 inHg , 1023.7 hPa
Clouds: Overcast
Visibility: 10 miles , 16 km
Cloud details: Overcast 6000 ft
2018/09/24 11:58 KTCM 241158Z AUTO 00000KT 10SM OVC060 06/06 A3023 RMK AO2 SLP241 T00630063 10113 20059 52008 $
 
KPAE - Everett, Washington, USA
Distance from station: NNW 35mi, 56km
Updated: Mon, 24-Sep-2018 5:53am PDT
Clear
Clear
 Wind from calm
Wind: Calm
Temperature: 48°F , 9°C
Dew Point: 45°F , 7°C
Humidity: 87%
Barometer: 30.24 inHg , 1024 hPa
Clouds: Clear
Visibility: 10 miles , 16 km
2018/09/24 12:53 KPAE 241253Z AUTO 00000KT 10SM CLR 09/07 A3024 RMK AO2 SLP240 T00890072
KPWT - Bremerton Ntnl, Washington, USA
Distance from station: W 35mi, 56km
Updated: Mon, 24-Sep-2018 5:56am PDT
Clear
Clear
 Wind from calm
Wind: Calm
Temperature: 39°F , 4°C
Dew Point: 39°F , 4°C
Humidity: 100%
Barometer: 30.24 inHg , 1024 hPa
Clouds: Clear
Visibility: 10 miles , 16 km
2018/09/24 12:56 KPWT 241256Z AUTO 00000KT 10SM CLR 04/04 A3024 RMK AO2 SLP259 T00440039
 
KGRF - Fort Lewis/Gray, Washington, USA
Distance from station: SW 37mi, 59km
Updated: Mon, 24-Sep-2018 5:55am PDT
Clear
Clear
 Wind from SE
Wind: SE 6 mph , 9 km/h
Temperature: 39°F , 4°C
Wind Chill: 35°F , 2°C
Dew Point: 39°F , 4°C
Humidity: 100%
Barometer: 30.23 inHg , 1023.7 hPa
Clouds: Clear
Visibility: 10 miles , 16 km
2018/09/24 12:55 KGRF 241255Z 14005KT 10SM CLR 04/04 A3023 RMK SLP241 T00440044